Time;durP1;ratioP1;P1;durP2;ratioP2;P2;SDS_P1;SDS_P2;PMS_P1;PMS_P2;Temp;Humidity;BMP_temperature;BMP_pressure;BME280_temperature;BME280_humidity;BME280_pressure;Samples;Min_cycle;Max_cycle;Signal;HPM_P1;HPM_P2
2021/06/01 00:01:45;;;;;;;2.00;0.60;;;12.70;99.90;;;;;;4955971;29;20055;-81
2021/06/01 00:04:12;;;;;;;1.55;0.57;;;12.70;99.90;;;;;;4949674;29;20111;-82
2021/06/01 00:06:39;;;;;;;1.13;0.40;;;12.70;99.90;;;;;;4966489;29;20075;-82
2021/06/01 00:09:07;;;;;;;1.10;0.43;;;12.60;99.90;;;;;;4966913;29;20055;-81
2021/06/01 00:11:33;;;;;;;2.72;0.55;;;12.50;99.90;;;;;;4967934;28;20047;-82
2021/06/01 00:13:59;;;;;;;1.10;0.40;;;12.50;99.90;;;;;;4969059;29;20066;-82
2021/06/01 00:16:25;;;;;;;1.85;0.57;;;12.40;99.90;;;;;;4953079;29;20038;-81
2021/06/01 00:18:50;;;;;;;2.15;0.50;;;12.40;99.90;;;;;;4970357;29;20059;-82
2021/06/01 00:21:17;;;;;;;1.25;0.45;;;12.30;99.90;;;;;;4970096;29;20027;-81
2021/06/01 00:23:43;;;;;;;1.23;0.50;;;12.40;99.90;;;;;;4970322;29;20082;-82
2021/06/01 00:26:11;;;;;;;1.00;0.40;;;12.40;99.90;;;;;;4970061;29;20057;-82
2021/06/01 00:28:39;;;;;;;1.67;0.40;;;12.40;99.90;;;;;;4970068;29;20036;-82
2021/06/01 00:31:06;;;;;;;1.25;0.50;;;12.30;99.90;;;;;;4969913;29;20503;-82
2021/06/01 00:33:32;;;;;;;1.52;0.40;;;12.30;99.90;;;;;;4968785;29;20034;-81
2021/06/01 00:35:58;;;;;;;1.05;0.50;;;12.30;99.90;;;;;;4969832;29;20118;-82
2021/06/01 00:38:24;;;;;;;1.70;0.60;;;12.30;99.90;;;;;;4970070;29;20038;-83
2021/06/01 00:40:49;;;;;;;2.00;0.50;;;12.30;99.90;;;;;;4968636;29;20540;-82
2021/06/01 00:43:15;;;;;;;2.35;0.52;;;12.20;99.90;;;;;;4966867;29;20035;-82
2021/06/01 00:45:41;;;;;;;1.80;0.50;;;12.20;99.90;;;;;;4968497;29;20099;-82
2021/06/01 00:48:07;;;;;;;1.10;0.40;;;12.20;99.90;;;;;;4968512;29;20476;-83
2021/06/01 00:50:33;;;;;;;1.85;0.65;;;12.20;99.90;;;;;;4969658;29;20093;-82
2021/06/01 00:53:00;;;;;;;1.80;0.50;;;12.20;99.90;;;;;;4959813;29;20492;-82
2021/06/01 00:55:26;;;;;;;1.58;0.60;;;12.20;99.90;;;;;;4933337;29;20125;-82
2021/06/01 00:57:52;;;;;;;1.85;0.55;;;12.20;99.90;;;;;;4950621;29;20035;-82
2021/06/01 01:02:51;;;;;;;2.72;0.60;;;12.00;99.90;;;;;;4950336;29;20036;-82
2021/06/01 01:05:41;;;;;;;1.40;0.50;;;11.90;99.90;;;;;;4950137;29;20035;-81
2021/06/01 01:08:18;;;;;;;1.42;0.50;;;11.90;99.90;;;;;;4947935;29;20090;-82
2021/06/01 01:10:45;;;;;;;2.53;0.50;;;11.90;99.90;;;;;;4947941;29;20067;-81
2021/06/01 01:13:13;;;;;;;1.50;0.50;;;11.80;99.90;;;;;;4947978;29;20067;-82
2021/06/01 01:15:39;;;;;;;1.60;0.50;;;11.70;99.90;;;;;;4947713;29;20039;-81
2021/06/01 01:18:13;;;;;;;2.40;0.52;;;11.60;99.90;;;;;;4947953;29;20035;-82
2021/06/01 01:21:14;;;;;;;1.83;0.60;;;11.60;99.90;;;;;;4947904;29;20042;-81
2021/06/01 01:23:52;;;;;;;1.10;0.50;;;11.50;99.90;;;;;;4915244;29;20044;-81
2021/06/01 01:26:30;;;;;;;1.40;0.60;;;11.40;99.90;;;;;;4962660;29;20067;-80
2021/06/01 01:29:04;;;;;;;2.28;0.60;;;11.40;99.90;;;;;;4935259;29;20031;-82
2021/06/01 01:31:54;;;;;;;1.33;0.50;;;11.30;99.90;;;;;;4966726;29;20582;-82
2021/06/01 01:34:22;;;;;;;1.60;0.50;;;11.30;99.90;;;;;;4966834;29;20031;-82
2021/06/01 01:36:49;;;;;;;2.38;0.50;;;11.30;99.90;;;;;;4966613;29;20035;-82
2021/06/01 01:39:15;;;;;;;3.25;0.50;;;11.30;99.90;;;;;;4966942;29;20046;-82
2021/06/01 01:41:43;;;;;;;2.15;0.50;;;11.40;99.90;;;;;;4966577;29;20063;-81
2021/06/01 01:44:16;;;;;;;1.73;0.40;;;11.40;99.90;;;;;;4955047;29;20040;-82
2021/06/01 01:49:15;;;;;;;1.35;0.65;;;11.60;99.90;;;;;;4949723;29;20050;-82
2021/06/01 01:51:44;;;;;;;1.58;0.40;;;11.60;99.90;;;;;;4932303;29;20043;-80
2021/06/01 01:54:31;;;;;;;1.83;0.40;;;11.60;99.90;;;;;;4949622;29;20032;-81
2021/06/01 01:57:07;;;;;;;1.95;0.40;;;11.70;99.90;;;;;;4949554;29;20038;-82
2021/06/01 01:59:35;;;;;;;1.13;0.40;;;11.90;99.90;;;;;;4949684;29;20039;-79
2021/06/01 02:02:02;;;;;;;1.42;0.40;;;11.90;99.90;;;;;;4949116;29;20028;-82
2021/06/01 02:04:30;;;;;;;1.23;0.30;;;11.90;99.90;;;;;;4949398;29;20042;-82
2021/06/01 02:06:57;;;;;;;2.47;0.40;;;11.90;99.90;;;;;;4948738;29;20496;-81
2021/06/01 02:09:24;;;;;;;1.20;0.30;;;11.90;99.90;;;;;;4949111;29;20039;-82
2021/06/01 02:11:50;;;;;;;0.80;0.40;;;11.90;99.90;;;;;;4948879;29;20039;-81
2021/06/01 02:14:18;;;;;;;1.40;0.40;;;11.80;99.90;;;;;;4949073;29;20035;-82
2021/06/01 02:16:44;;;;;;;1.20;0.50;;;11.90;99.90;;;;;;4948967;29;20032;-82
2021/06/01 02:19:13;;;;;;;1.02;0.30;;;11.80;99.90;;;;;;4949212;29;20036;-82
2021/06/01 02:24:27;;;;;;;1.33;0.40;;;11.70;99.90;;;;;;4949038;29;20047;-82
2021/06/01 02:27:13;;;;;;;3.92;0.50;;;11.50;99.90;;;;;;4968058;29;20035;-83
2021/06/01 02:30:00;;;;;;;2.42;0.40;;;11.40;99.90;;;;;;4950942;29;20046;-82
2021/06/01 02:32:40;;;;;;;1.20;0.40;;;11.50;99.90;;;;;;4967664;29;20039;-82
2021/06/01 02:35:12;;;;;;;1.90;0.40;;;11.40;99.90;;;;;;4967791;28;20038;-81
2021/06/01 02:37:39;;;;;;;1.10;0.40;;;11.40;99.90;;;;;;4967842;29;20126;-82
2021/06/01 02:40:10;;;;;;;1.02;0.40;;;11.20;99.90;;;;;;4934929;29;20031;-84
2021/06/01 02:42:38;;;;;;;1.02;0.30;;;11.10;99.90;;;;;;4967716;29;20035;-81
2021/06/01 02:45:05;;;;;;;1.58;0.40;;;11.20;99.90;;;;;;4967760;28;20038;-81
2021/06/01 02:47:31;;;;;;;1.60;0.40;;;11.20;99.90;;;;;;4967486;29;20039;-82
2021/06/01 02:49:57;;;;;;;1.58;0.40;;;11.10;99.90;;;;;;4966421;29;20338;-81
2021/06/01 02:52:24;;;;;;;1.67;0.47;;;11.10;99.90;;;;;;4967458;29;20097;-82
2021/06/01 02:54:50;;;;;;;1.30;0.50;;;11.00;99.90;;;;;;4950250;29;20506;-82
2021/06/01 02:57:19;;;;;;;1.30;0.40;;;11.00;99.90;;;;;;4967549;29;20031;-81
2021/06/01 02:59:45;;;;;;;1.10;0.40;;;10.90;99.90;;;;;;4950390;29;20038;-81
2021/06/01 03:02:11;;;;;;;1.52;0.40;;;10.90;99.90;;;;;;4967494;29;20054;-82
2021/06/01 03:04:49;;;;;;;1.75;0.40;;;10.80;99.90;;;;;;4967475;29;20035;-81
2021/06/01 03:07:15;;;;;;;1.20;0.50;;;10.80;99.90;;;;;;4950060;29;20058;-81
2021/06/01 03:09:40;;;;;;;2.13;0.40;;;10.80;99.90;;;;;;4967473;29;20027;-82
2021/06/01 03:12:08;;;;;;;1.10;0.40;;;10.70;99.90;;;;;;4967619;29;20039;-81
2021/06/01 03:14:33;;;;;;;1.73;0.40;;;10.60;99.90;;;;;;4967450;29;20046;-82
2021/06/01 03:16:59;;;;;;;1.30;0.50;;;10.70;99.90;;;;;;4950232;29;20043;-82
2021/06/01 03:19:25;;;;;;;2.72;0.50;;;10.60;99.90;;;;;;4966228;29;20037;-82
2021/06/01 03:21:50;;;;;;;1.63;0.50;;;10.60;99.90;;;;;;4967327;29;20031;-81
2021/06/01 03:24:16;;;;;;;2.00;0.63;;;10.50;99.90;;;;;;4966242;29;20077;-82
2021/06/01 03:26:41;;;;;;;1.98;0.60;;;10.50;99.90;;;;;;4980971;28;20081;-82
2021/06/01 03:29:07;;;;;;;1.52;0.50;;;10.40;99.90;;;;;;4966221;29;20491;-82
2021/06/01 03:31:33;;;;;;;1.23;0.50;;;10.40;99.90;;;;;;4965945;29;20039;-82
2021/06/01 03:33:59;;;;;;;2.22;0.70;;;10.40;99.90;;;;;;4966680;28;20047;-82
2021/06/01 03:36:24;;;;;;;1.20;0.50;;;10.40;99.90;;;;;;4967150;29;20035;-82
2021/06/01 03:38:51;;;;;;;2.53;0.50;;;10.30;99.90;;;;;;4967335;29;20038;-82
2021/06/01 03:41:17;;;;;;;3.25;0.50;;;10.30;99.90;;;;;;4965393;29;20039;-82
2021/06/01 03:43:43;;;;;;;2.15;0.57;;;10.30;99.90;;;;;;4966642;28;20029;-82
2021/06/01 03:46:08;;;;;;;2.85;0.70;;;10.30;99.90;;;;;;4968820;28;20039;-82
2021/06/01 03:48:34;;;;;;;1.70;0.70;;;10.30;99.90;;;;;;4952995;29;20131;-80
2021/06/01 03:50:59;;;;;;;2.95;0.60;;;10.40;99.90;;;;;;4970294;29;20035;-82
2021/06/01 03:53:28;;;;;;;2.22;0.70;;;10.40;99.90;;;;;;4970329;29;20051;-82
2021/06/01 03:55:54;;;;;;;2.28;0.93;;;10.30;99.90;;;;;;4970462;29;20032;-82
2021/06/01 03:58:20;;;;;;;2.00;0.70;;;10.20;99.90;;;;;;4968955;29;20090;-80
2021/06/01 04:00:46;;;;;;;2.30;0.60;;;10.20;99.90;;;;;;4969098;29;20042;-82
2021/06/01 04:03:12;;;;;;;1.58;0.70;;;10.20;99.90;;;;;;4970267;29;20039;-82
2021/06/01 04:05:37;;;;;;;1.58;0.52;;;10.20;99.90;;;;;;4969880;29;20450;-82
2021/06/01 04:08:05;;;;;;;1.95;0.77;;;10.30;99.90;;;;;;4968545;29;20076;-81
2021/06/01 04:10:32;;;;;;;2.00;0.60;;;10.30;99.90;;;;;;4952351;29;20031;-82
2021/06/01 04:12:58;;;;;;;2.13;0.80;;;10.40;99.90;;;;;;4952931;29;20057;-81
2021/06/01 04:15:24;;;;;;;1.70;0.55;;;10.40;99.90;;;;;;4969944;29;20479;-81
2021/06/01 04:17:49;;;;;;;2.30;0.95;;;10.40;99.90;;;;;;4969805;29;20031;-82
2021/06/01 04:20:15;;;;;;;2.70;0.70;;;10.40;99.90;;;;;;4969849;29;20102;-82
2021/06/01 04:22:41;;;;;;;1.83;0.68;;;10.50;99.90;;;;;;4968454;29;20038;-82
2021/06/01 04:25:07;;;;;;;2.72;0.55;;;10.60;99.90;;;;;;4969858;29;20036;-81
2021/06/01 04:27:33;;;;;;;2.47;0.90;;;10.60;99.90;;;;;;4968588;29;20046;-81
2021/06/01 04:29:59;;;;;;;2.20;1.38;;;10.70;99.90;;;;;;4969661;29;20027;-82
2021/06/01 04:32:25;;;;;;;2.53;0.57;;;10.90;99.90;;;;;;4969552;28;20039;-82
2021/06/01 04:34:50;;;;;;;3.08;0.63;;;11.00;99.90;;;;;;4968406;29;20031;-82
2021/06/01 04:37:16;;;;;;;2.25;0.75;;;11.20;99.90;;;;;;4969626;29;20035;-82
2021/06/01 04:39:42;;;;;;;2.30;0.63;;;11.50;99.90;;;;;;4969582;29;20078;-82
2021/06/01 04:42:07;;;;;;;1.52;0.75;;;11.60;99.90;;;;;;4968283;29;20046;-80
2021/06/01 04:44:33;;;;;;;2.33;0.68;;;11.80;99.90;;;;;;4969497;28;20373;-81
2021/06/01 04:46:59;;;;;;;2.10;0.70;;;12.10;99.90;;;;;;4969546;29;20495;-82
2021/06/01 04:49:24;;;;;;;2.00;0.60;;;12.20;99.90;;;;;;4969195;29;20028;-81
2021/06/01 04:51:50;;;;;;;2.53;0.80;;;12.40;99.90;;;;;;4969153;29;20043;-81
2021/06/01 04:54:16;;;;;;;1.50;0.70;;;12.60;99.90;;;;;;4952148;29;20046;-82
2021/06/01 04:56:41;;;;;;;2.08;0.80;;;12.80;99.90;;;;;;4968898;28;20042;-81
2021/06/01 04:59:07;;;;;;;2.05;0.68;;;13.00;99.90;;;;;;4953136;29;20035;-82
2021/06/01 05:01:32;;;;;;;1.90;0.65;;;13.20;99.90;;;;;;4970373;29;20035;-81
2021/06/01 05:03:58;;;;;;;2.50;0.80;;;13.40;99.90;;;;;;4970321;29;20023;-82
2021/06/01 05:06:27;;;;;;;1.48;0.60;;;13.50;99.90;;;;;;4952931;29;20046;-80
2021/06/01 05:08:55;;;;;;;2.72;0.90;;;13.50;99.90;;;;;;4969597;29;20031;-82
2021/06/01 05:11:21;;;;;;;1.58;0.68;;;13.70;99.90;;;;;;4967824;29;20095;-82
2021/06/01 05:13:47;;;;;;;2.03;0.70;;;13.80;99.90;;;;;;4957115;29;20031;-86
2021/06/01 05:16:14;;;;;;;3.42;0.60;;;13.80;99.90;;;;;;4949359;29;20036;-85
2021/06/01 05:18:39;;;;;;;1.70;0.80;;;13.90;99.90;;;;;;4948859;29;20485;-85
2021/06/01 05:21:05;;;;;;;2.58;0.70;;;14.00;99.90;;;;;;4948873;29;20095;-84
2021/06/01 05:23:31;;;;;;;2.15;0.77;;;14.10;99.90;;;;;;4932541;29;20028;-83
2021/06/01 05:25:57;;;;;;;2.17;0.80;;;14.10;99.90;;;;;;4961514;29;20042;-85
2021/06/01 05:28:23;;;;;;;4.03;0.70;;;14.20;99.90;;;;;;4968531;29;20058;-83
2021/06/01 05:31:03;;;;;;;1.83;0.70;;;14.30;99.90;;;;;;4967112;29;20047;-83
2021/06/01 05:33:34;;;;;;;4.07;0.70;;;14.40;99.90;;;;;;4968501;29;20392;-81
2021/06/01 05:36:00;;;;;;;2.50;0.95;;;14.40;99.90;;;;;;4964736;28;20481;-85
2021/06/01 05:38:29;;;;;;;1.45;0.70;;;14.50;99.90;;;;;;4955299;29;20047;-81
2021/06/01 05:40:56;;;;;;;2.38;0.70;;;14.60;99.90;;;;;;4948994;29;20034;-81
2021/06/01 05:43:22;;;;;;;2.10;0.70;;;14.80;99.90;;;;;;4953109;28;20083;-85
2021/06/01 05:45:48;;;;;;;1.25;0.50;;;14.90;99.90;;;;;;4968388;29;20035;-84
2021/06/01 05:48:14;;;;;;;2.65;0.60;;;15.20;99.90;;;;;;4968012;29;20116;-84
2021/06/01 05:50:41;;;;;;;1.50;0.70;;;15.40;99.90;;;;;;4967961;29;20035;-84
2021/06/01 05:53:07;;;;;;;1.95;0.50;;;15.60;99.90;;;;;;4968185;29;20042;-82
2021/06/01 05:55:34;;;;;;;1.50;0.55;;;15.70;99.90;;;;;;4967993;29;20046;-82
2021/06/01 05:58:00;;;;;;;3.13;0.60;;;16.00;99.90;;;;;;4950730;29;20039;-81
2021/06/01 06:00:30;;;;;;;1.60;0.60;;;16.20;99.90;;;;;;4966833;29;20031;-81
2021/06/01 06:02:58;;;;;;;1.67;0.50;;;16.30;99.90;;;;;;4966778;29;20039;-83
2021/06/01 06:05:45;;;;;;;3.15;0.98;;;16.50;99.90;;;;;;4966356;29;20099;-80
2021/06/01 06:08:13;;;;;;;2.55;0.70;;;16.70;99.90;;;;;;4926902;29;20564;-82
2021/06/01 06:10:43;;;;;;;2.20;0.60;;;16.80;99.90;;;;;;4927219;29;20052;-80
2021/06/01 06:13:08;;;;;;;;;;;16.90;99.90;;;;;;4927876;29;20048;-81
2021/06/01 06:15:35;;;;;;;3.17;0.60;;;16.90;99.90;;;;;;4927559;29;19919;-83
2021/06/01 06:18:22;;;;;;;1.65;0.60;;;17.10;99.90;;;;;;4927280;29;20032;-80
2021/06/01 06:20:48;;;;;;;1.55;0.60;;;17.30;99.90;;;;;;4912009;29;20043;-80
2021/06/01 06:23:14;;;;;;;1.20;0.47;;;17.40;99.90;;;;;;4927455;29;20059;-85
2021/06/01 06:25:39;;;;;;;2.17;0.60;;;17.70;99.90;;;;;;4934639;29;20043;-81
2021/06/01 06:28:05;;;;;;;2.50;0.50;;;17.70;99.90;;;;;;4906371;29;20056;-85
2021/06/01 06:30:31;;;;;;;1.40;0.70;;;17.80;99.90;;;;;;4877358;29;20067;-86
2021/06/01 06:33:03;;;;;;;1.85;0.80;;;18.10;99.90;;;;;;4908829;29;20053;-85
2021/06/01 06:35:29;;;;;;;4.38;0.75;;;18.00;99.90;;;;;;4908773;29;20061;-86
2021/06/01 06:37:54;;;;;;;1.10;0.50;;;18.00;99.90;;;;;;4908442;29;20655;-87
2021/06/01 06:40:20;;;;;;;2.20;0.68;;;18.20;99.90;;;;;;4908381;29;20158;-84
2021/06/01 06:42:46;;;;;;;3.03;0.68;;;18.30;99.90;;;;;;4894706;29;20081;-87
2021/06/01 06:45:13;;;;;;;2.17;0.60;;;18.40;99.90;;;;;;4967017;28;20051;-87
2021/06/01 06:50:07;;;;;;;1.73;0.60;;;18.80;99.90;;;;;;4987523;28;20046;-86
2021/06/01 06:52:37;;;;;;;1.40;0.70;;;18.90;99.90;;;;;;4987083;28;20045;-85
2021/06/01 06:55:05;;;;;;;2.83;0.60;;;19.10;99.90;;;;;;4970091;28;20062;-86
2021/06/01 06:57:31;;;;;;;2.47;0.60;;;19.30;99.90;;;;;;4987365;28;20046;-86
2021/06/01 06:59:57;;;;;;;2.03;0.55;;;19.20;99.90;;;;;;4987394;28;20022;-87
2021/06/01 07:02:28;;;;;;;2.03;0.60;;;19.20;99.90;;;;;;4969849;28;20035;-86
2021/06/01 07:04:53;;;;;;;2.25;0.55;;;19.40;99.90;;;;;;4987339;28;20086;-86
2021/06/01 07:07:19;;;;;;;2.00;0.60;;;19.70;99.90;;;;;;4986863;28;20069;-87
2021/06/01 07:09:44;;;;;;;1.63;0.60;;;19.70;99.90;;;;;;4969778;28;20098;-84
2021/06/01 07:12:11;;;;;;;2.08;0.88;;;19.70;99.90;;;;;;4986502;28;20102;-85
2021/06/01 07:15:11;;;;;;;1.73;0.45;;;19.90;99.90;;;;;;4969118;28;20038;-84
2021/06/01 07:17:44;;;;;;;1.90;0.50;;;20.10;99.90;;;;;;4969222;28;20106;-85
2021/06/01 07:20:11;;;;;;;1.38;0.45;;;20.20;99.90;;;;;;4985758;28;20031;-85
2021/06/01 07:22:37;;;;;;;2.22;0.70;;;20.20;99.90;;;;;;4986176;28;20495;-85
2021/06/01 07:25:03;;;;;;;1.58;0.50;;;20.40;99.90;;;;;;4965881;29;20051;-85
2021/06/01 07:27:29;;;;;;;2.17;0.50;;;20.50;99.90;;;;;;4966985;29;20391;-85
2021/06/01 07:29:55;;;;;;;1.50;0.50;;;20.30;99.90;;;;;;4965861;29;20047;-85
2021/06/01 07:32:21;;;;;;;2.05;0.40;;;20.60;99.90;;;;;;4966806;29;20043;-84
2021/06/01 07:34:48;;;;;;;1.85;0.60;;;21.00;99.90;;;;;;4966669;29;20032;-83
2021/06/01 07:37:14;;;;;;;1.60;0.47;;;21.00;99.90;;;;;;4966633;29;20046;-80
2021/06/01 07:39:40;;;;;;;1.58;0.47;;;21.20;99.90;;;;;;4966745;29;20031;-84
2021/06/01 07:42:06;;;;;;;2.35;0.50;;;21.40;99.90;;;;;;4965637;29;20036;-82
2021/06/01 07:44:33;;;;;;;1.08;0.50;;;21.20;99.90;;;;;;4953881;29;20050;-80
2021/06/01 07:46:59;;;;;;;1.48;0.60;;;21.30;99.90;;;;;;4966740;29;20071;-83
2021/06/01 07:49:25;;;;;;;3.58;0.40;;;21.40;99.90;;;;;;4966786;29;20094;-86
2021/06/01 07:51:51;;;;;;;2.00;0.73;;;21.70;99.90;;;;;;4966779;29;20047;-84
2021/06/01 07:54:16;;;;;;;1.75;0.60;;;21.40;99.90;;;;;;4966918;29;20098;-85
2021/06/01 07:56:42;;;;;;;2.42;0.50;;;21.50;99.90;;;;;;4966738;29;20031;-80
2021/06/01 07:59:08;;;;;;;1.60;0.40;;;21.80;99.90;;;;;;4965416;29;20027;-84
2021/06/01 08:01:33;;;;;;;1.20;0.40;;;21.90;99.90;;;;;;4966735;29;20095;-82
2021/06/01 08:03:59;;;;;;;2.47;0.35;;;22.10;99.90;;;;;;4966742;29;20035;-83
2021/06/01 08:06:29;;;;;;;1.38;0.40;;;21.90;99.90;;;;;;4966363;29;20036;-82
2021/06/01 08:08:55;;;;;;;1.83;0.40;;;21.70;99.90;;;;;;4966739;29;20036;-83
2021/06/01 08:11:21;;;;;;;1.95;0.40;;;22.20;99.90;;;;;;4966324;29;20051;-83
2021/06/01 08:13:46;;;;;;;1.25;0.50;;;22.50;99.90;;;;;;4949417;29;20044;-84
2021/06/01 08:16:12;;;;;;;0.90;0.40;;;22.30;99.90;;;;;;4965045;29;20047;-83
2021/06/01 08:18:47;;;;;;;1.48;0.43;;;22.80;99.90;;;;;;4965077;29;20035;-83
2021/06/01 08:21:23;;;;;;;2.38;0.43;;;22.60;99.90;;;;;;4948962;29;20058;-83
2021/06/01 08:23:48;;;;;;;0.90;0.32;;;22.50;99.70;;;;;;4966252;29;20103;-84
2021/06/01 08:26:14;;;;;;;1.85;0.40;;;22.50;99.90;;;;;;4966241;29;20035;-84
2021/06/01 08:28:39;;;;;;;2.72;0.52;;;22.70;99.60;;;;;;4966280;29;20020;-84
2021/06/01 08:31:05;;;;;;;1.05;0.40;;;22.50;99.60;;;;;;4966411;28;20579;-85
2021/06/01 08:33:31;;;;;;;4.75;0.50;;;22.80;99.90;;;;;;4969628;29;20028;-84
2021/06/01 08:35:58;;;;;;;1.10;0.45;;;22.70;99.60;;;;;;4969876;29;20035;-83
2021/06/01 08:38:23;;;;;;;1.98;0.40;;;22.60;99.20;;;;;;4969499;28;20035;-84
2021/06/01 08:40:51;;;;;;;1.40;0.40;;;22.70;99.90;;;;;;4969345;29;20027;-83
2021/06/01 08:43:21;;;;;;;2.00;0.65;;;22.60;99.40;;;;;;4966682;29;20381;-84
2021/06/01 08:45:49;;;;;;;1.35;0.50;;;22.60;99.30;;;;;;4969818;29;20046;-83
2021/06/01 08:48:17;;;;;;;1.63;0.50;;;22.70;99.20;;;;;;4969605;29;20036;-84
2021/06/01 08:50:46;;;;;;;0.90;0.40;;;23.10;99.90;;;;;;4969275;29;20317;-84
2021/06/01 08:53:12;;;;;;;3.78;0.50;;;23.30;97.80;;;;;;4969546;29;20123;-83
2021/06/01 08:55:37;;;;;;;1.80;0.50;;;23.50;98.50;;;;;;4969242;29;20458;-83
2021/06/01 08:58:04;;;;;;;2.00;0.43;;;23.40;98.20;;;;;;4969440;29;20074;-84
2021/06/01 09:00:29;;;;;;;1.10;0.40;;;23.70;96.80;;;;;;4969154;29;20038;-86
2021/06/01 09:03:06;;;;;;;3.05;0.47;;;23.40;95.60;;;;;;4969342;29;20019;-85
2021/06/01 09:05:32;;;;;;;1.63;0.50;;;23.60;96.90;;;;;;4967958;29;20043;-86
2021/06/01 09:08:06;;;;;;;1.02;0.40;;;23.50;96.40;;;;;;4969062;29;20058;-85
2021/06/01 09:11:17;;;;;;;2.10;0.40;;;23.60;96.60;;;;;;4968892;29;20079;-86
2021/06/01 09:13:37;;;;;;;2.55;0.40;;;23.40;96.30;;;;;;4963474;29;20047;-86
2021/06/01 09:21:43;;;;;;;1.95;0.30;;;24.00;91.70;;;;;;4968994;29;20432;-83
2021/06/01 09:24:09;;;;;;;3.13;0.40;;;23.90;92.50;;;;;;4968915;29;20031;-85
2021/06/01 09:27:28;;;;;;;1.10;0.30;;;24.10;92.30;;;;;;4981098;28;20506;-80
2021/06/01 09:29:33;;;;;;;2.50;0.30;;;23.70;90.20;;;;;;4960956;29;20043;-83
2021/06/01 09:32:04;;;;;;;0.80;0.30;;;23.80;90.00;;;;;;4968458;29;20126;-85
2021/06/01 09:34:47;;;;;;;0.80;0.30;;;23.80;90.60;;;;;;4967854;29;20032;-85
2021/06/01 09:37:32;;;;;;;1.27;0.30;;;24.00;90.80;;;;;;4969442;29;20038;-85
2021/06/01 09:40:08;;;;;;;2.40;0.30;;;24.10;89.30;;;;;;4969045;29;20043;-82
2021/06/01 09:42:36;;;;;;;0.80;0.28;;;24.10;89.50;;;;;;4968467;28;20059;-85
2021/06/01 09:45:12;;;;;;;1.15;0.30;;;24.30;87.60;;;;;;4951658;29;20071;-83
2021/06/01 09:47:58;;;;;;;0.88;0.30;;;24.40;87.40;;;;;;4967520;29;20058;-84
2021/06/01 09:53:34;;;;;;;1.10;0.30;;;24.70;90.40;;;;;;4909380;29;20036;-82
2021/06/01 09:56:00;;;;;;;1.15;0.30;;;24.90;86.20;;;;;;4909496;29;20049;-84
2021/06/01 09:58:36;;;;;;;1.17;0.30;;;24.70;85.90;;;;;;4893974;29;20060;-84
2021/06/01 10:01:06;;;;;;;2.20;0.30;;;24.90;86.60;;;;;;4877406;29;20037;-84
2021/06/01 10:03:45;;;;;;;1.55;0.38;;;24.90;85.30;;;;;;4893098;29;20124;-81
2021/06/01 10:06:11;;;;;;;2.03;0.30;;;25.00;85.90;;;;;;4892730;29;20538;-85
2021/06/01 10:08:52;;;;;;;2.08;0.50;;;25.00;81.40;;;;;;4892726;29;20053;-83
2021/06/01 10:11:18;;;;;;;1.58;0.30;;;24.70;80.70;;;;;;4908396;29;20541;-84
2021/06/01 10:13:45;;;;;;;1.65;0.30;;;24.60;82.40;;;;;;4908752;29;20107;-83
2021/06/01 10:16:13;;;;;;;0.93;0.30;;;24.80;83.30;;;;;;4894479;29;20085;-84
2021/06/01 10:18:41;;;;;;;1.35;0.40;;;25.10;82.90;;;;;;4908961;29;20033;-85
2021/06/01 10:21:09;;;;;;;3.85;0.60;;;25.30;83.80;;;;;;4908348;29;20618;-84
2021/06/01 10:23:41;;;;;;;2.03;0.30;;;25.50;83.00;;;;;;4892965;29;20040;-84
2021/06/01 10:26:09;;;;;;;1.77;0.30;;;25.00;80.80;;;;;;4908408;29;20568;-81
2021/06/01 10:28:38;;;;;;;0.95;0.30;;;25.40;79.60;;;;;;4966088;29;20054;-83
2021/06/01 10:31:08;;;;;;;1.02;0.20;;;25.60;80.50;;;;;;4952632;29;20043;-83
2021/06/01 10:33:59;;;;;;;;;;;25.60;74.30;;;;;;4968511;29;20049;-84
2021/06/01 10:50:28;;;;;;;0.70;0.35;;;25.70;75.00;;;;;;4966527;29;20067;-84
2021/06/01 10:53:07;;;;;;;0.70;0.30;;;25.60;74.30;;;;;;4966411;29;20035;-83
2021/06/01 10:56:01;;;;;;;0.40;0.20;;;25.70;73.90;;;;;;4951405;28;20055;-84
2021/06/01 10:58:44;;;;;;;0.90;0.30;;;26.10;76.90;;;;;;4947945;29;20066;-85
2021/06/01 11:04:14;;;;;;;0.55;0.20;;;26.00;74.30;;;;;;4948071;29;20091;-85
2021/06/01 11:09:34;;;;;;;0.80;0.20;;;25.50;71.40;;;;;;4946116;29;20040;-83
2021/06/01 11:12:00;;;;;;;0.63;0.20;;;26.00;71.40;;;;;;4946034;29;20036;-85
2021/06/01 11:14:30;;;;;;;3.42;0.20;;;25.90;70.50;;;;;;4947715;29;20096;-82
2021/06/01 11:17:01;;;;;;;1.85;0.28;;;25.70;70.60;;;;;;4930506;29;20070;-84
2021/06/01 11:20:05;;;;;;;0.60;0.20;;;26.00;71.30;;;;;;4947475;29;20028;-84
2021/06/01 11:23:19;;;;;;;0.70;0.20;;;26.10;70.90;;;;;;4947877;29;20099;-85
2021/06/01 11:33:26;;;;;;;0.95;0.30;;;25.80;71.60;;;;;;4966677;29;20042;-82
2021/06/01 11:36:03;;;;;;;1.20;0.30;;;25.90;67.90;;;;;;4938235;28;20054;-84
2021/06/01 11:43:33;;;;;;;0.68;0.30;;;26.00;69.40;;;;;;4966442;29;20038;-83
2021/06/01 11:51:18;;;;;;;2.05;0.20;;;26.00;70.70;;;;;;4965228;29;20056;-82
2021/06/01 11:54:12;;;;;;;1.80;0.30;;;26.40;70.00;;;;;;4966658;29;20038;-84
2021/06/01 12:05:08;;;;;;;0.80;0.30;;;26.40;69.60;;;;;;4966561;29;20020;-84
2021/06/01 12:18:40;;;;;;;0.60;0.20;;;26.30;66.00;;;;;;4953097;29;20055;-83
2021/06/01 12:21:19;;;;;;;1.55;0.30;;;26.40;67.80;;;;;;4970328;29;20030;-82
2021/06/01 12:24:13;;;;;;;2.08;0.30;;;27.00;67.60;;;;;;4968988;29;20043;-84
2021/06/01 12:32:29;;;;;;;0.90;0.30;;;26.20;66.10;;;;;;4933208;29;20051;-85
2021/06/01 12:43:06;;;;;;;1.27;0.43;;;26.20;65.00;;;;;;4936065;29;21342;-84
2021/06/01 13:14:10;;;;;;;0.65;0.20;;;26.70;66.30;;;;;;4949021;29;20035;-86
2021/06/01 13:19:44;;;;;;;0.80;0.20;;;26.80;66.40;;;;;;4947550;29;20035;-86
2021/06/01 13:39:03;;;;;;;1.58;0.30;;;26.70;66.10;;;;;;4930625;29;20092;-84
2021/06/01 13:46:50;;;;;;;0.60;0.20;;;26.60;66.20;;;;;;4948072;29;20036;-85
2021/06/01 13:49:31;;;;;;;0.90;0.30;;;26.50;65.70;;;;;;4949165;29;20055;-85
2021/06/01 14:19:32;;;;;;;0.57;0.30;;;26.20;66.20;;;;;;4908335;29;20055;-84
2021/06/01 14:29:55;;;;;;;0.85;0.20;;;26.50;65.60;;;;;;4907688;29;20029;-84
2021/06/01 15:48:27;;;;;;;0.57;0.20;;;25.80;64.80;;;;;;4951215;29;20032;-85
2021/06/01 15:51:06;;;;;;;1.00;0.20;;;26.00;65.80;;;;;;4951292;29;20047;-84
2021/06/01 16:31:49;;;;;;;1.15;0.30;;;25.80;62.90;;;;;;4950420;29;20055;-85
2021/06/01 16:42:51;;;;;;;1.20;0.20;;;25.60;62.50;;;;;;4949996;29;20032;-83
2021/06/01 17:07:14;;;;;;;0.98;0.20;;;25.60;60.30;;;;;;4930593;29;20051;-83
2021/06/01 17:12:36;;;;;;;0.77;0.20;;;25.50;61.70;;;;;;4930808;29;20107;-83
2021/06/01 17:15:02;;;;;;;;;;;25.50;60.40;;;;;;4945766;29;20527;-83
2021/06/01 17:17:31;;;;;;;0.75;0.20;;;25.50;60.40;;;;;;4930546;29;19974;-81
2021/06/01 17:20:11;;;;;;;0.45;0.20;;;25.60;61.60;;;;;;4930501;29;20032;-83
2021/06/01 17:35:55;;;;;;;0.85;0.30;;;25.80;61.50;;;;;;4930055;29;20032;-79
2021/06/01 17:38:21;;;;;;;0.68;0.20;;;25.90;61.10;;;;;;4930399;29;20043;-82
2021/06/01 17:40:52;;;;;;;0.70;0.20;;;25.90;60.40;;;;;;4930261;29;20024;-83
2021/06/01 17:43:24;;;;;;;0.80;0.20;;;25.90;61.50;;;;;;4917907;29;20463;-83
2021/06/01 17:45:53;;;;;;;0.50;0.20;;;26.10;61.50;;;;;;4949286;29;20040;-84
2021/06/01 17:50:56;;;;;;;0.52;0.20;;;26.00;59.50;;;;;;4947429;29;20123;-79
2021/06/01 17:53:23;;;;;;;0.65;0.20;;;26.10;60.90;;;;;;4931760;29;20024;-78
2021/06/01 17:55:54;;;;;;;0.30;0.20;;;26.20;61.60;;;;;;4948986;29;20042;-80
2021/06/01 17:58:25;;;;;;;0.75;0.20;;;26.00;60.90;;;;;;4948968;29;20032;-80
2021/06/01 18:00:52;;;;;;;0.40;0.20;;;25.90;61.10;;;;;;4931773;29;20091;-81
2021/06/01 18:03:19;;;;;;;0.75;0.20;;;25.80;61.00;;;;;;4948796;29;20466;-81
2021/06/01 18:05:47;;;;;;;0.68;0.20;;;25.70;61.60;;;;;;4947930;29;20046;-79
2021/06/01 18:08:22;;;;;;;0.60;0.20;;;25.70;61.70;;;;;;4931261;29;20500;-82
2021/06/01 18:36:27;;;;;;;0.68;0.20;;;25.10;63.10;;;;;;4948117;29;20040;-84
2021/06/01 19:51:30;;;;;;;1.45;0.30;;;22.10;72.30;;;;;;4945266;29;20044;-81
2021/06/01 19:53:56;;;;;;;2.97;0.30;;;21.90;72.80;;;;;;4914771;29;20502;-81
2021/06/01 19:56:22;;;;;;;0.40;0.20;;;21.70;72.60;;;;;;4922779;29;20039;-82
2021/06/01 19:58:48;;;;;;;1.08;0.30;;;21.70;72.80;;;;;;4946189;29;20040;-82
2021/06/01 20:01:14;;;;;;;0.80;0.20;;;21.60;73.70;;;;;;4946430;29;20103;-81
2021/06/01 20:03:40;;;;;;;1.92;0.20;;;21.50;73.40;;;;;;4946413;29;20028;-81
2021/06/01 20:06:09;;;;;;;0.85;0.40;;;21.40;74.20;;;;;;4946721;29;20080;-81
2021/06/01 20:08:36;;;;;;;0.75;0.20;;;21.30;74.10;;;;;;4946787;29;20071;-82
2021/06/01 20:11:03;;;;;;;0.50;0.20;;;21.20;74.10;;;;;;4945844;29;20040;-82
2021/06/01 20:13:29;;;;;;;0.82;0.30;;;21.20;74.40;;;;;;4947229;29;20105;-81
2021/06/01 20:15:55;;;;;;;0.50;0.22;;;21.00;74.10;;;;;;4930434;29;20035;-82
2021/06/01 20:18:26;;;;;;;1.33;0.30;;;21.00;74.70;;;;;;4914693;29;20031;-82
2021/06/01 20:20:55;;;;;;;1.50;0.40;;;20.90;75.00;;;;;;4947495;29;20038;-81